TAF LEAB
LEAB 072300Z 0800/0824 29016KT 9999 BKN030 TX12/0815Z TN05/0806Z TEMPO 0800/0818 29020G35KT PROB40 TEMPO 0802/0806 3000 RA BKN010 PROB40 TEMPO 0811/0818 29025G40KT=
METAR LEAB
LEAB 080400Z 26014KT 9999 BKN020 BKN033 11/07 Q1012 NOSIG=
LEAB 080330Z 26016KT 9999 BKN019 10/07 Q1012 NOSIG=
LEAB 080300Z 25014G24KT 9999 BKN021 10/07 Q1012 NOSIG=
LEAB 080230Z 24014KT 9999 BKN021 BKN032 10/07 Q1012 NOSIG=
LEAB 080200Z 24015KT 9999 FEW023 10/07 Q1013 NOSIG=
WC LEAB
WS LEAB
WV LEAB